Time;durP1;ratioP1;P1;durP2;ratioP2;P2;SDS_P1;SDS_P2;PMS_P1;PMS_P2;Temp;Humidity;BMP_temperature;BMP_pressure;BME280_temperature;BME280_humidity;BME280_pressure;Samples;Min_cycle;Max_cycle;Signal;HPM_P1;HPM_P2
2022/03/08 00:02:25;;;;;;;14.35;7.45;;;-1.60;99.90;;;;;;4993166;28;20038;-84
2022/03/08 00:04:51;;;;;;;13.88;7.25;;;-1.70;99.90;;;;;;4977146;28;20396;-82
2022/03/08 00:07:17;;;;;;;13.50;7.13;;;-1.70;99.90;;;;;;4973943;28;20507;-83
2022/03/08 00:09:43;;;;;;;14.68;7.43;;;-1.70;99.90;;;;;;4989743;28;20038;-83
2022/03/08 00:12:10;;;;;;;13.30;6.88;;;-1.60;99.90;;;;;;5009250;28;20042;-83
2022/03/08 00:14:36;;;;;;;13.48;7.63;;;-1.60;99.90;;;;;;4977741;28;20495;-83
2022/03/08 00:17:03;;;;;;;13.63;7.57;;;-1.50;99.90;;;;;;4992952;28;20038;-84
2022/03/08 00:19:28;;;;;;;14.73;7.65;;;-1.40;99.90;;;;;;4992973;28;20043;-83
2022/03/08 00:21:54;;;;;;;16.30;8.05;;;-1.40;99.90;;;;;;4986606;28;20383;-83
2022/03/08 00:24:20;;;;;;;15.13;7.28;;;-1.40;99.90;;;;;;4993396;28;20042;-83
2022/03/08 00:26:46;;;;;;;13.00;7.00;;;-1.50;99.90;;;;;;4976553;28;20523;-84
2022/03/08 00:29:12;;;;;;;14.82;7.78;;;-1.50;99.90;;;;;;4975405;28;20395;-81
2022/03/08 00:31:37;;;;;;;12.27;7.78;;;-1.50;99.90;;;;;;4999506;28;20053;-83
2022/03/08 00:34:04;;;;;;;14.38;6.97;;;-1.40;99.90;;;;;;4994840;28;20080;-83
2022/03/08 00:36:30;;;;;;;13.48;7.00;;;-1.60;99.90;;;;;;4988438;28;20125;-84
2022/03/08 00:38:56;;;;;;;14.48;7.25;;;-1.60;99.90;;;;;;4982491;28;20471;-85
2022/03/08 00:41:22;;;;;;;15.82;7.68;;;-1.70;99.90;;;;;;4974462;28;20050;-83
2022/03/08 00:43:49;;;;;;;14.20;7.88;;;-1.70;99.90;;;;;;4989968;28;20046;-83
2022/03/08 00:46:15;;;;;;;12.77;7.00;;;-1.70;99.90;;;;;;4988760;28;20133;-83
2022/03/08 00:48:42;;;;;;;14.85;7.65;;;-1.80;99.90;;;;;;4975155;28;20130;-83
2022/03/08 00:51:08;;;;;;;16.70;7.70;;;-1.80;99.90;;;;;;4992249;28;20451;-84
2022/03/08 00:53:34;;;;;;;16.05;8.52;;;-1.90;99.90;;;;;;4991469;28;20045;-83
2022/03/08 00:55:59;;;;;;;15.55;8.50;;;-1.90;99.90;;;;;;4975643;28;20034;-83
2022/03/08 00:58:25;;;;;;;13.27;7.93;;;-1.90;99.90;;;;;;4959452;28;20035;-89
2022/03/08 01:00:51;;;;;;;18.70;8.23;;;-1.90;99.90;;;;;;4975750;28;20034;-82
2022/03/08 01:03:17;;;;;;;19.25;8.55;;;-1.90;99.90;;;;;;4975867;28;20137;-82
2022/03/08 01:05:42;;;;;;;12.93;7.72;;;-2.00;99.90;;;;;;4975031;28;20050;-83
2022/03/08 01:08:09;;;;;;;13.35;7.53;;;-2.00;99.90;;;;;;4975914;28;20081;-83
2022/03/08 01:10:35;;;;;;;16.23;7.70;;;-2.00;99.90;;;;;;4991747;28;20042;-83
2022/03/08 01:13:01;;;;;;;13.07;7.47;;;-2.00;99.90;;;;;;4991887;28;20039;-83
2022/03/08 01:15:27;;;;;;;13.25;7.20;;;-2.00;99.90;;;;;;4989445;28;20042;-89
2022/03/08 01:17:55;;;;;;;14.07;7.75;;;-2.00;99.90;;;;;;4989594;28;20045;-83
2022/03/08 01:20:20;;;;;;;12.85;7.35;;;-2.00;99.90;;;;;;4990451;28;20125;-86
2022/03/08 01:22:46;;;;;;;15.88;7.15;;;-2.10;99.90;;;;;;4973335;28;20438;-84
2022/03/08 01:25:14;;;;;;;15.05;7.32;;;-2.20;99.90;;;;;;4974126;28;20514;-83
2022/03/08 01:27:40;;;;;;;17.38;7.18;;;-2.20;99.90;;;;;;4974942;28;20038;-83
2022/03/08 01:30:09;;;;;;;16.17;8.18;;;-2.20;99.90;;;;;;4974980;28;20048;-83
2022/03/08 01:32:34;;;;;;;12.90;7.20;;;-2.30;99.90;;;;;;4974703;28;20030;-83
2022/03/08 01:35:00;;;;;;;13.35;7.68;;;-2.30;99.90;;;;;;4974670;28;20042;-85
2022/03/08 01:37:26;;;;;;;15.23;7.85;;;-2.30;99.90;;;;;;4974345;28;20133;-84
2022/03/08 01:39:52;;;;;;;14.88;7.75;;;-2.20;99.90;;;;;;4988512;28;20054;-84
2022/03/08 01:42:22;;;;;;;15.02;7.80;;;-2.20;99.90;;;;;;4988805;28;20107;-83
2022/03/08 01:44:48;;;;;;;16.20;7.63;;;-2.10;99.90;;;;;;4989430;28;20175;-82
2022/03/08 01:47:20;;;;;;;14.18;7.90;;;-2.10;99.90;;;;;;4974179;28;20479;-82
2022/03/08 01:49:47;;;;;;;17.73;8.10;;;-2.10;99.90;;;;;;4979970;28;20046;-83
2022/03/08 01:52:14;;;;;;;14.60;8.18;;;-2.10;99.90;;;;;;4991434;28;20121;-83
2022/03/08 01:54:42;;;;;;;16.20;8.00;;;-2.20;99.90;;;;;;4975199;28;20045;-84
2022/03/08 01:57:08;;;;;;;14.27;7.35;;;-2.20;99.90;;;;;;4974692;28;20031;-83
2022/03/08 01:59:34;;;;;;;15.40;7.82;;;-2.20;99.90;;;;;;4973872;28;20129;-83
2022/03/08 02:02:01;;;;;;;15.63;7.57;;;-2.20;99.90;;;;;;4973220;28;20141;-84
2022/03/08 02:04:26;;;;;;;14.48;7.80;;;-2.20;99.90;;;;;;4988624;28;20073;-84
2022/03/08 02:06:52;;;;;;;15.32;8.52;;;-2.30;99.90;;;;;;4990775;28;20074;-83
2022/03/08 02:09:18;;;;;;;13.75;7.70;;;-2.30;99.90;;;;;;4963767;28;20106;-85
2022/03/08 02:11:44;;;;;;;13.93;7.22;;;-2.40;99.90;;;;;;4952113;28;20125;-83
2022/03/08 02:14:10;;;;;;;15.40;7.78;;;-2.40;99.90;;;;;;4986720;28;20046;-84
2022/03/08 02:16:36;;;;;;;16.23;8.30;;;-2.40;99.90;;;;;;4977427;28;20129;-83
2022/03/08 02:19:03;;;;;;;14.20;7.60;;;-2.40;99.90;;;;;;4993408;28;20050;-83
2022/03/08 02:21:34;;;;;;;15.07;7.35;;;-2.50;99.90;;;;;;4992941;28;20085;-84
2022/03/08 02:24:00;;;;;;;16.52;8.88;;;-2.50;99.90;;;;;;4993868;28;20065;-83
2022/03/08 02:26:26;;;;;;;14.75;8.07;;;-2.50;99.90;;;;;;5008309;28;20042;-84
2022/03/08 02:28:53;;;;;;;15.60;8.40;;;-2.60;99.90;;;;;;4978535;28;20479;-83
2022/03/08 02:31:18;;;;;;;15.35;7.38;;;-2.60;99.90;;;;;;4994964;28;20046;-85
2022/03/08 02:33:44;;;;;;;16.60;8.20;;;-2.60;99.90;;;;;;4975300;28;20057;-83
2022/03/08 02:36:10;;;;;;;15.60;8.38;;;-2.70;99.90;;;;;;4965497;28;20072;-84
2022/03/08 02:38:36;;;;;;;19.00;9.20;;;-2.70;99.90;;;;;;4994349;28;20039;-83
2022/03/08 02:41:02;;;;;;;17.15;8.65;;;-2.70;99.90;;;;;;4994825;28;20492;-83
2022/03/08 02:43:28;;;;;;;16.42;8.20;;;-2.70;99.90;;;;;;4994588;28;20391;-84
2022/03/08 02:45:54;;;;;;;16.90;9.18;;;-2.70;99.90;;;;;;4978087;28;20053;-84
2022/03/08 02:48:24;;;;;;;22.65;9.35;;;-2.70;99.90;;;;;;4962511;28;20112;-84
2022/03/08 02:50:50;;;;;;;18.10;9.10;;;-2.70;99.90;;;;;;4994244;28;20046;-83
2022/03/08 02:53:15;;;;;;;17.35;9.30;;;-2.80;99.90;;;;;;4967974;28;20038;-85
2022/03/08 02:55:41;;;;;;;14.63;8.25;;;-2.70;99.90;;;;;;4976978;28;20042;-83
2022/03/08 02:58:07;;;;;;;15.05;8.50;;;-2.80;99.90;;;;;;4977916;28;20038;-83
2022/03/08 03:00:34;;;;;;;17.15;8.80;;;-2.80;99.90;;;;;;4977757;28;20048;-87
2022/03/08 03:03:00;;;;;;;19.05;8.13;;;-2.80;99.90;;;;;;4978205;28;20034;-83
2022/03/08 03:05:26;;;;;;;20.77;9.23;;;-2.80;99.90;;;;;;4993982;28;20086;-88
2022/03/08 03:07:52;;;;;;;16.25;8.85;;;-2.90;99.90;;;;;;4976628;28;20147;-83
2022/03/08 03:10:20;;;;;;;15.80;8.68;;;-2.90;99.90;;;;;;4978474;28;20052;-83
2022/03/08 03:12:46;;;;;;;21.95;9.35;;;-2.80;99.90;;;;;;4973129;28;20039;-84
2022/03/08 03:15:14;;;;;;;18.08;8.65;;;-2.80;99.90;;;;;;4974402;28;20057;-83
2022/03/08 03:17:40;;;;;;;18.23;8.25;;;-2.90;99.90;;;;;;4991452;28;20053;-83
2022/03/08 03:20:08;;;;;;;22.50;9.98;;;-2.90;99.90;;;;;;4978104;28;20046;-84
2022/03/08 03:22:35;;;;;;;15.85;9.32;;;-2.90;99.90;;;;;;4977918;28;20100;-90
2022/03/08 03:25:01;;;;;;;17.65;9.73;;;-2.80;99.90;;;;;;4974859;28;20077;-86
2022/03/08 03:27:27;;;;;;;17.50;9.15;;;-2.80;99.90;;;;;;4976353;28;20085;-83
2022/03/08 03:29:52;;;;;;;19.83;8.93;;;-2.80;99.90;;;;;;4977441;28;20054;-82
2022/03/08 03:32:19;;;;;;;21.75;9.77;;;-2.80;99.90;;;;;;4978205;28;20137;-84
2022/03/08 03:34:46;;;;;;;22.00;10.18;;;-2.80;99.90;;;;;;4993640;28;20052;-83
2022/03/08 03:37:12;;;;;;;20.45;9.18;;;-2.80;99.90;;;;;;4993891;28;20038;-84
2022/03/08 03:39:38;;;;;;;21.50;10.13;;;-2.80;99.90;;;;;;4992921;28;20053;-89
2022/03/08 03:42:04;;;;;;;17.30;10.23;;;-2.80;99.90;;;;;;5010150;28;20054;-83
2022/03/08 03:44:30;;;;;;;19.75;10.18;;;-2.90;99.90;;;;;;4993686;28;20049;-84
2022/03/08 03:46:56;;;;;;;20.48;9.43;;;-2.80;99.90;;;;;;4977428;28;20042;-85
2022/03/08 03:49:22;;;;;;;20.23;10.90;;;-2.80;99.90;;;;;;4971853;28;20077;-84
2022/03/08 03:51:50;;;;;;;20.95;10.75;;;-2.80;99.90;;;;;;4977215;28;20084;-83
2022/03/08 03:54:17;;;;;;;24.02;10.68;;;-2.80;99.90;;;;;;4957931;28;20074;-87
2022/03/08 03:56:44;;;;;;;22.77;9.82;;;-2.80;99.90;;;;;;4990101;28;20046;-83
2022/03/08 03:59:09;;;;;;;19.63;10.30;;;-2.80;99.90;;;;;;4975591;28;20063;-83
2022/03/08 04:01:35;;;;;;;17.15;9.35;;;-2.90;99.90;;;;;;4976374;28;20050;-83
2022/03/08 04:04:01;;;;;;;18.60;10.25;;;-2.90;99.90;;;;;;4961008;28;20384;-84
2022/03/08 04:06:26;;;;;;;19.42;10.02;;;-2.90;99.90;;;;;;4961264;28;20156;-83
2022/03/08 04:08:52;;;;;;;21.42;10.27;;;-3.00;99.90;;;;;;4976810;28;20053;-83
2022/03/08 04:11:18;;;;;;;22.67;10.65;;;-3.00;99.90;;;;;;4976991;28;20388;-84
2022/03/08 04:13:43;;;;;;;19.58;9.50;;;-3.00;99.90;;;;;;4976771;28;20034;-84
2022/03/08 04:16:10;;;;;;;19.05;9.85;;;-3.00;99.90;;;;;;4977160;28;20042;-84
2022/03/08 04:18:36;;;;;;;21.35;10.77;;;-3.00;99.90;;;;;;4993127;28;20042;-85
2022/03/08 04:21:02;;;;;;;24.88;11.35;;;-3.00;99.90;;;;;;4970083;28;20035;-84
2022/03/08 04:23:27;;;;;;;25.13;11.70;;;-3.10;99.90;;;;;;4976353;28;20128;-85
2022/03/08 04:25:54;;;;;;;23.30;10.40;;;-3.00;99.90;;;;;;4990557;28;20126;-84
2022/03/08 04:28:19;;;;;;;21.60;11.40;;;-3.10;99.90;;;;;;4992010;28;20054;-83
2022/03/08 04:30:45;;;;;;;23.83;11.45;;;-3.10;99.90;;;;;;5008909;28;20084;-83
2022/03/08 04:33:11;;;;;;;22.85;11.88;;;-3.10;99.90;;;;;;4986529;28;20054;-83
2022/03/08 04:35:37;;;;;;;26.33;11.88;;;-3.10;99.90;;;;;;4976937;28;20050;-84
2022/03/08 04:38:03;;;;;;;20.33;11.88;;;-3.10;99.90;;;;;;4992026;28;20088;-84
2022/03/08 04:40:29;;;;;;;21.50;11.68;;;-3.00;99.90;;;;;;4991917;28;20515;-84
2022/03/08 04:42:55;;;;;;;24.58;11.40;;;-2.90;99.90;;;;;;4992160;28;20149;-84
2022/03/08 04:45:21;;;;;;;22.05;10.85;;;-3.00;99.90;;;;;;4992678;28;20038;-84
2022/03/08 04:47:47;;;;;;;23.10;12.10;;;-3.00;99.90;;;;;;4960627;28;20050;-84
2022/03/08 04:50:14;;;;;;;26.95;13.43;;;-3.00;99.90;;;;;;4992504;28;20089;-83
2022/03/08 04:52:41;;;;;;;24.70;12.30;;;-3.00;99.90;;;;;;4961173;28;20081;-89
2022/03/08 04:55:08;;;;;;;26.42;12.65;;;-3.00;99.90;;;;;;4970365;28;20054;-83
2022/03/08 04:57:33;;;;;;;24.00;11.80;;;-3.10;99.90;;;;;;4981767;28;20435;-83
2022/03/08 04:59:59;;;;;;;24.48;11.90;;;-3.10;99.90;;;;;;4991125;28;20158;-85
2022/03/08 05:02:25;;;;;;;21.35;11.30;;;-3.10;99.90;;;;;;4991845;28;20070;-85
2022/03/08 05:04:51;;;;;;;23.98;12.32;;;-3.10;99.90;;;;;;4991161;28;20034;-83
2022/03/08 05:07:17;;;;;;;26.15;11.80;;;-3.10;99.90;;;;;;5008404;28;20502;-86
2022/03/08 05:09:42;;;;;;;26.80;12.60;;;-3.00;99.90;;;;;;4972301;28;20042;-89
2022/03/08 05:12:09;;;;;;;23.17;11.80;;;-3.10;99.90;;;;;;4986116;28;20073;-83
2022/03/08 05:14:35;;;;;;;27.92;13.10;;;-3.10;99.90;;;;;;4975717;28;20416;-84
2022/03/08 05:17:01;;;;;;;25.90;12.68;;;-3.10;99.90;;;;;;4987674;28;20052;-85
2022/03/08 05:19:27;;;;;;;24.58;12.88;;;-3.10;99.90;;;;;;4974295;28;20053;-84
2022/03/08 05:21:53;;;;;;;23.95;12.07;;;-3.10;99.90;;;;;;4973637;28;20042;-83
2022/03/08 05:24:18;;;;;;;25.13;12.45;;;-3.10;99.90;;;;;;4975083;28;20046;-85
2022/03/08 05:26:44;;;;;;;29.75;13.68;;;-3.10;99.90;;;;;;4975161;28;20443;-90
2022/03/08 05:29:10;;;;;;;29.35;13.73;;;-3.00;99.90;;;;;;4981125;28;20034;-84
2022/03/08 05:31:36;;;;;;;26.95;13.10;;;-2.90;99.90;;;;;;4980431;28;20070;-84
2022/03/08 05:34:02;;;;;;;27.25;13.95;;;-3.00;99.90;;;;;;4981779;28;20200;-84
2022/03/08 05:36:28;;;;;;;26.05;14.35;;;-2.90;99.90;;;;;;4962441;28;20105;-85
2022/03/08 05:38:54;;;;;;;29.20;14.18;;;-2.90;99.90;;;;;;4978820;28;20041;-84
2022/03/08 05:41:20;;;;;;;24.25;12.52;;;-2.90;99.90;;;;;;4971415;28;20112;-85
2022/03/08 05:43:45;;;;;;;27.98;13.73;;;-2.80;99.90;;;;;;4986741;28;20050;-90
2022/03/08 05:46:11;;;;;;;26.75;13.13;;;-2.80;99.90;;;;;;4991280;28;20073;-85
2022/03/08 05:48:38;;;;;;;25.98;14.02;;;-2.80;99.90;;;;;;4991383;28;20089;-87
2022/03/08 05:51:04;;;;;;;26.05;12.82;;;-2.80;99.90;;;;;;4990562;28;20566;-84
2022/03/08 05:53:30;;;;;;;30.52;13.73;;;-2.80;99.90;;;;;;4971990;28;20043;-85
2022/03/08 05:55:55;;;;;;;29.23;14.40;;;-2.80;99.90;;;;;;4984549;28;20042;-84
2022/03/08 05:58:21;;;;;;;27.48;13.60;;;-2.70;99.90;;;;;;4971915;28;20388;-84
2022/03/08 06:00:47;;;;;;;26.17;12.43;;;-2.70;99.90;;;;;;4998490;28;20049;-90
2022/03/08 06:03:12;;;;;;;23.95;12.38;;;-2.70;99.90;;;;;;4986077;28;20046;-84
2022/03/08 06:05:38;;;;;;;26.90;12.90;;;-2.70;99.90;;;;;;4978342;28;20046;-84
2022/03/08 06:08:05;;;;;;;28.65;14.07;;;-2.80;99.90;;;;;;4983451;28;20393;-86
2022/03/08 06:10:32;;;;;;;25.35;13.63;;;-2.70;99.90;;;;;;5007301;28;20072;-85
2022/03/08 06:12:58;;;;;;;35.22;14.73;;;-2.70;99.90;;;;;;4991043;28;20091;-85
2022/03/08 06:15:23;;;;;;;28.48;14.50;;;-2.70;99.90;;;;;;4990460;28;20352;-83
2022/03/08 06:17:49;;;;;;;28.70;14.02;;;-2.70;99.90;;;;;;4990472;28;20052;-84
2022/03/08 06:20:15;;;;;;;26.45;13.93;;;-2.70;99.90;;;;;;4989021;28;20053;-83
2022/03/08 06:22:41;;;;;;;33.75;16.13;;;-2.70;99.90;;;;;;4991083;28;20038;-84
2022/03/08 06:25:07;;;;;;;31.90;15.52;;;-2.70;99.90;;;;;;4959550;28;20093;-84
2022/03/08 06:27:33;;;;;;;33.33;15.05;;;-2.60;99.90;;;;;;4975077;28;20034;-83
2022/03/08 06:29:59;;;;;;;30.67;15.40;;;-2.60;99.90;;;;;;4972248;28;20101;-84
2022/03/08 06:32:24;;;;;;;30.60;14.95;;;-2.50;99.90;;;;;;4975075;28;20030;-84
2022/03/08 06:34:51;;;;;;;28.10;14.45;;;-2.40;99.90;;;;;;4974485;28;20054;-86
2022/03/08 06:37:18;;;;;;;30.13;13.93;;;-2.50;99.90;;;;;;4979279;28;20047;-86
2022/03/08 06:39:47;;;;;;;28.88;14.63;;;-2.40;99.90;;;;;;4955505;28;20051;-85
2022/03/08 06:42:13;;;;;;;28.83;14.43;;;-2.40;99.90;;;;;;4981259;28;20101;-85
2022/03/08 06:44:39;;;;;;;26.05;13.25;;;-2.30;99.90;;;;;;4985146;28;20461;-86
2022/03/08 06:47:09;;;;;;;26.77;13.77;;;-2.30;99.90;;;;;;4970248;28;20519;-86
2022/03/08 06:49:38;;;;;;;28.60;14.50;;;-2.30;99.90;;;;;;4990713;28;20484;-86
2022/03/08 06:52:04;;;;;;;27.42;14.27;;;-2.20;99.90;;;;;;4974033;28;20077;-83
2022/03/08 06:54:30;;;;;;;29.45;14.73;;;-2.20;99.90;;;;;;4974200;28;20042;-83
2022/03/08 06:56:55;;;;;;;30.55;15.73;;;-2.10;99.90;;;;;;4973223;28;20373;-85
2022/03/08 06:59:21;;;;;;;28.42;14.32;;;-2.00;99.90;;;;;;4986646;28;20134;-84
2022/03/08 07:01:47;;;;;;;27.02;15.32;;;-1.90;99.90;;;;;;4986301;28;20076;-84
2022/03/08 07:04:13;;;;;;;26.48;14.55;;;-1.90;99.90;;;;;;4976548;28;20445;-84
2022/03/08 07:06:40;;;;;;;29.27;16.00;;;-1.80;99.90;;;;;;4977334;28;20057;-85
2022/03/08 07:09:06;;;;;;;30.90;15.10;;;-1.70;99.90;;;;;;4992723;28;20054;-86
2022/03/08 07:11:31;;;;;;;27.65;15.20;;;-1.60;99.90;;;;;;4991112;28;20053;-84
2022/03/08 07:13:57;;;;;;;27.50;14.63;;;-1.60;99.90;;;;;;4958112;28;20058;-84
2022/03/08 07:16:23;;;;;;;26.95;14.95;;;-1.50;99.90;;;;;;4990676;28;20073;-86
2022/03/08 07:18:49;;;;;;;29.65;14.80;;;-1.40;99.90;;;;;;4976695;28;20084;-83
2022/03/08 07:21:14;;;;;;;25.35;14.85;;;-1.30;99.90;;;;;;4992648;28;20042;-84
2022/03/08 07:23:40;;;;;;;27.08;14.50;;;-1.30;99.90;;;;;;4978104;28;20050;-83
2022/03/08 07:26:09;;;;;;;26.65;14.25;;;-1.20;99.90;;;;;;4977520;28;20046;-85
2022/03/08 07:28:34;;;;;;;24.13;14.00;;;-1.10;99.90;;;;;;4994291;28;20618;-83
2022/03/08 07:31:01;;;;;;;28.42;14.18;;;-1.00;99.90;;;;;;4977829;28;20121;-89
2022/03/08 07:33:27;;;;;;;27.15;14.18;;;-1.00;99.90;;;;;;4993166;28;20042;-83
2022/03/08 07:35:53;;;;;;;29.35;14.75;;;-0.90;99.90;;;;;;4994300;28;20048;-88
2022/03/08 07:38:18;;;;;;;28.92;14.63;;;-0.80;99.90;;;;;;4994562;28;20038;-88
2022/03/08 07:40:44;;;;;;;26.70;14.80;;;-0.70;99.90;;;;;;4992720;28;20050;-86
2022/03/08 07:43:10;;;;;;;24.58;14.45;;;-0.70;99.90;;;;;;4976830;28;20050;-84
2022/03/08 07:45:36;;;;;;;26.65;14.45;;;-0.60;99.90;;;;;;4993768;28;20197;-84
2022/03/08 07:48:05;;;;;;;27.02;14.23;;;-0.50;99.90;;;;;;4993094;28;20053;-84
2022/03/08 07:50:35;;;;;;;25.40;14.88;;;-0.40;99.90;;;;;;4993972;28;20129;-84
2022/03/08 07:53:00;;;;;;;22.00;13.35;;;-0.30;99.90;;;;;;4993913;28;20053;-88
2022/03/08 07:55:30;;;;;;;25.67;13.85;;;-0.20;99.90;;;;;;4990422;28;20043;-84
2022/03/08 07:57:56;;;;;;;26.27;13.57;;;-0.20;99.90;;;;;;4973299;28;20380;-89
2022/03/08 08:00:23;;;;;;;25.98;14.10;;;-0.10;99.90;;;;;;4987082;28;20042;-83
2022/03/08 08:02:48;;;;;;;24.58;12.90;;;0.00;99.90;;;;;;4973023;28;20052;-83
2022/03/08 08:05:14;;;;;;;23.05;13.55;;;0.10;99.90;;;;;;4977188;28;20133;-84
2022/03/08 08:07:40;;;;;;;25.95;13.60;;;0.20;99.90;;;;;;4976553;28;20049;-84
2022/03/08 08:10:06;;;;;;;25.15;12.85;;;0.40;99.90;;;;;;5008858;28;20046;-86
2022/03/08 08:12:32;;;;;;;22.85;12.13;;;0.60;99.90;;;;;;4974338;28;20054;-83
2022/03/08 08:14:57;;;;;;;20.80;12.55;;;0.70;99.90;;;;;;4975108;28;20115;-91
2022/03/08 08:17:23;;;;;;;20.52;12.38;;;0.80;99.90;;;;;;4972020;28;20488;-87
2022/03/08 08:19:49;;;;;;;21.55;12.73;;;0.90;99.90;;;;;;4977075;28;20042;-84
2022/03/08 08:22:14;;;;;;;21.67;12.55;;;1.00;99.90;;;;;;4970519;28;20057;-84
2022/03/08 08:24:40;;;;;;;20.02;11.65;;;1.00;99.90;;;;;;4992850;28;20050;-84
2022/03/08 08:27:06;;;;;;;20.75;12.57;;;1.20;99.90;;;;;;4986738;28;20053;-85
2022/03/08 08:29:32;;;;;;;17.95;11.52;;;1.30;99.90;;;;;;4942634;28;20154;-85
2022/03/08 08:31:57;;;;;;;19.25;12.10;;;1.40;99.90;;;;;;4989756;28;20049;-88
2022/03/08 08:34:23;;;;;;;21.92;12.43;;;1.50;99.90;;;;;;4991109;28;20506;-85
2022/03/08 08:36:49;;;;;;;19.70;11.80;;;1.60;99.90;;;;;;4977237;28;20518;-84
2022/03/08 08:39:15;;;;;;;18.30;11.70;;;1.70;99.90;;;;;;4976634;28;20042;-85
2022/03/08 08:41:42;;;;;;;18.35;11.27;;;1.80;99.90;;;;;;4989603;28;20058;-89
2022/03/08 08:44:08;;;;;;;15.07;10.43;;;1.90;99.90;;;;;;4972433;28;20042;-85
2022/03/08 08:46:34;;;;;;;17.40;11.68;;;2.00;99.90;;;;;;4991808;28;20049;-84
2022/03/08 08:49:00;;;;;;;18.83;11.32;;;2.20;99.90;;;;;;4959019;28;20472;-92
2022/03/08 08:51:25;;;;;;;15.35;11.10;;;2.20;99.90;;;;;;4974593;28;20053;-84
2022/03/08 08:53:51;;;;;;;18.02;11.75;;;2.40;99.90;;;;;;4959464;28;20038;-84
2022/03/08 08:56:17;;;;;;;17.67;11.20;;;2.50;99.90;;;;;;4992056;28;20494;-84
2022/03/08 08:58:42;;;;;;;15.73;10.32;;;2.60;99.90;;;;;;4959694;28;20387;-85
2022/03/08 09:01:08;;;;;;;18.02;11.25;;;2.70;99.90;;;;;;4974299;28;20046;-84
2022/03/08 09:03:33;;;;;;;19.92;11.50;;;2.80;99.90;;;;;;5002821;28;20553;-84
2022/03/08 09:05:59;;;;;;;16.50;10.15;;;3.00;99.90;;;;;;4957161;28;20419;-91
2022/03/08 09:08:25;;;;;;;18.33;10.75;;;3.00;99.70;;;;;;4984819;28;20078;-85
2022/03/08 09:10:52;;;;;;;16.67;10.00;;;3.20;98.50;;;;;;4990657;28;20128;-84
2022/03/08 09:13:18;;;;;;;14.88;10.18;;;3.30;98.50;;;;;;4975611;28;20130;-84
2022/03/08 09:15:44;;;;;;;15.27;9.68;;;3.40;98.10;;;;;;4971684;28;20038;-86
2022/03/08 09:18:09;;;;;;;14.90;9.55;;;3.50;98.00;;;;;;4982709;28;20038;-85
2022/03/08 09:20:35;;;;;;;13.98;9.63;;;3.60;96.70;;;;;;4981511;28;20045;-84
2022/03/08 09:23:01;;;;;;;16.17;10.20;;;3.80;95.50;;;;;;4990927;28;20443;-90
2022/03/08 09:25:27;;;;;;;16.80;9.77;;;3.90;94.70;;;;;;4961590;28;20125;-85
2022/03/08 09:27:54;;;;;;;14.85;9.88;;;4.10;94.20;;;;;;4969217;28;20038;-84
2022/03/08 09:30:20;;;;;;;11.65;8.82;;;4.30;93.50;;;;;;4972254;28;20100;-84
2022/03/08 09:32:45;;;;;;;12.52;8.82;;;4.40;93.00;;;;;;4971009;28;20046;-85
2022/03/08 09:35:11;;;;;;;16.65;8.75;;;4.50;92.30;;;;;;4990519;28;20084;-85
2022/03/08 09:37:37;;;;;;;11.95;8.63;;;4.60;91.60;;;;;;4974008;28;20042;-85
2022/03/08 09:40:04;;;;;;;12.70;8.43;;;4.70;91.10;;;;;;4983977;28;20046;-88
2022/03/08 09:42:31;;;;;;;12.32;8.55;;;4.80;91.30;;;;;;4975421;28;20046;-84
2022/03/08 09:44:57;;;;;;;12.30;8.90;;;5.00;89.20;;;;;;4974372;28;20046;-83
2022/03/08 09:47:23;;;;;;;11.60;8.23;;;5.20;87.60;;;;;;4957268;28;20072;-86
2022/03/08 09:49:50;;;;;;;11.85;8.65;;;5.40;87.60;;;;;;4987139;28;20070;-84
2022/03/08 09:52:17;;;;;;;12.68;9.05;;;5.40;87.10;;;;;;4972001;28;20117;-85
2022/03/08 09:54:43;;;;;;;12.10;8.27;;;5.60;86.40;;;;;;4974382;28;20388;-86
2022/03/08 09:57:14;;;;;;;10.05;7.25;;;5.80;85.80;;;;;;4973451;28;20042;-85
2022/03/08 09:59:40;;;;;;;13.82;8.43;;;6.00;82.70;;;;;;4984415;28;20121;-85
2022/03/08 10:02:06;;;;;;;11.43;8.13;;;6.20;81.70;;;;;;5006456;28;20039;-88
2022/03/08 10:04:32;;;;;;;11.85;7.57;;;6.40;81.50;;;;;;4973833;28;20041;-86
2022/03/08 10:06:58;;;;;;;11.65;7.70;;;6.60;80.50;;;;;;4975044;28;20046;-85
2022/03/08 10:09:25;;;;;;;9.35;6.97;;;6.80;79.60;;;;;;4974023;28;20057;-84
2022/03/08 10:11:52;;;;;;;9.73;6.72;;;6.90;77.70;;;;;;4969710;28;20042;-87
2022/03/08 10:14:39;;;;;;;11.95;6.30;;;7.10;74.30;;;;;;4988028;28;20042;-84
2022/03/08 10:17:10;;;;;;;9.45;6.50;;;7.30;73.20;;;;;;4969934;28;20121;-90
2022/03/08 10:19:46;;;;;;;8.15;6.05;;;7.40;72.50;;;;;;4966902;28;20038;-86
2022/03/08 10:22:24;;;;;;;;;;;7.60;68.90;;;;;;4988960;28;20073;-85
2022/03/08 10:24:49;;;;;;;7.43;5.88;;;7.60;64.30;;;;;;4975079;28;20004;-84
2022/03/08 10:27:16;;;;;;;8.40;6.13;;;7.80;70.60;;;;;;4971236;28;20127;-86
2022/03/08 10:29:42;;;;;;;8.60;6.20;;;7.90;68.90;;;;;;4946777;28;20057;-84
2022/03/08 10:32:11;;;;;;;8.50;5.97;;;8.00;68.70;;;;;;5000838;28;20072;-85
2022/03/08 10:34:38;;;;;;;8.55;6.10;;;8.10;66.80;;;;;;4961800;28;20104;-85
2022/03/08 10:37:09;;;;;;;10.10;6.40;;;8.20;66.40;;;;;;4991614;28;20041;-85
2022/03/08 10:39:46;;;;;;;9.25;5.82;;;8.40;66.60;;;;;;4977409;28;20038;-85
2022/03/08 10:42:22;;;;;;;8.10;5.60;;;8.40;65.80;;;;;;4993850;28;20434;-85
2022/03/08 10:44:48;;;;;;;9.13;5.72;;;8.60;63.70;;;;;;4994256;28;20050;-85
2022/03/08 10:47:15;;;;;;;7.47;5.65;;;8.70;62.90;;;;;;4961677;28;20053;-86
2022/03/08 10:49:53;;;;;;;7.93;5.30;;;8.80;60.80;;;;;;4976540;28;20404;-85
2022/03/08 10:52:33;;;;;;;8.30;5.93;;;8.90;59.50;;;;;;4982916;28;20054;-84
2022/03/08 10:55:13;;;;;;;9.77;5.63;;;9.00;58.20;;;;;;5004610;28;20042;-83
2022/03/08 10:57:43;;;;;;;7.60;5.15;;;9.10;57.20;;;;;;4992875;28;20046;-84
2022/03/08 11:00:13;;;;;;;6.97;5.00;;;9.20;58.80;;;;;;4992846;28;20054;-85
2022/03/08 11:02:50;;;;;;;7.32;5.30;;;9.30;59.20;;;;;;4977404;28;20380;-84
2022/03/08 11:05:18;;;;;;;9.43;5.40;;;9.40;56.50;;;;;;4992935;28;20475;-83
2022/03/08 11:07:43;;;;;;;7.50;5.65;;;9.50;59.00;;;;;;4976607;28;20047;-85
2022/03/08 11:10:11;;;;;;;8.98;5.65;;;9.60;58.60;;;;;;4972533;28;20054;-88
2022/03/08 11:12:38;;;;;;;6.97;5.47;;;9.70;58.20;;;;;;4983483;28;20054;-85
2022/03/08 11:15:06;;;;;;;9.07;5.28;;;9.80;57.90;;;;;;4978338;28;20468;-85
2022/03/08 11:17:37;;;;;;;6.60;5.10;;;9.90;56.40;;;;;;5001574;28;20091;-85
2022/03/08 11:20:06;;;;;;;12.63;7.00;;;10.10;57.00;;;;;;4975036;28;20410;-84
2022/03/08 11:22:32;;;;;;;8.50;6.18;;;10.20;57.20;;;;;;4993184;28;20117;-84
2022/03/08 11:24:59;;;;;;;9.93;5.65;;;10.30;57.10;;;;;;4977702;28;20034;-83
2022/03/08 11:27:26;;;;;;;8.52;6.28;;;10.50;56.30;;;;;;4980215;28;20038;-83
2022/03/08 11:29:53;;;;;;;8.25;5.75;;;10.50;55.50;;;;;;4986131;28;20042;-86
2022/03/08 11:32:33;;;;;;;8.30;5.75;;;10.60;54.40;;;;;;5006311;28;20507;-85
2022/03/08 11:35:14;;;;;;;8.45;5.50;;;10.70;53.40;;;;;;4986181;28;20050;-84
2022/03/08 11:37:44;;;;;;;7.90;5.45;;;10.80;53.70;;;;;;4976842;28;20101;-86
2022/03/08 11:40:16;;;;;;;7.43;5.35;;;10.90;53.60;;;;;;4977032;28;20053;-89
2022/03/08 11:42:46;;;;;;;8.95;5.78;;;11.00;53.50;;;;;;4994014;28;20053;-88
2022/03/08 11:45:20;;;;;;;7.78;4.80;;;11.10;51.90;;;;;;4993264;28;20105;-87
2022/03/08 11:47:53;;;;;;;5.90;4.70;;;11.20;51.40;;;;;;4991780;28;20049;-86
2022/03/08 11:50:31;;;;;;;7.10;5.07;;;11.30;50.50;;;;;;4990938;28;20078;-90
2022/03/08 11:53:09;;;;;;;5.68;4.57;;;11.30;50.50;;;;;;4965388;28;20038;-86
2022/03/08 11:55:42;;;;;;;7.18;4.90;;;11.50;50.70;;;;;;4974255;28;20185;-86
2022/03/08 11:58:32;;;;;;;8.38;4.47;;;11.60;49.30;;;;;;4991334;28;20039;-86
2022/03/08 12:00:59;;;;;;;6.75;5.05;;;11.60;49.60;;;;;;4978963;28;20069;-85
2022/03/08 12:03:24;;;;;;;6.00;4.57;;;11.60;49.60;;;;;;4991964;28;20042;-86
2022/03/08 12:05:57;;;;;;;5.82;4.72;;;11.80;50.10;;;;;;4990857;28;20042;-85
2022/03/08 12:08:29;;;;;;;6.93;5.20;;;11.80;49.30;;;;;;4972164;28;20052;-85
2022/03/08 12:11:00;;;;;;;5.75;4.60;;;11.90;48.60;;;;;;4975666;28;20046;-84
2022/03/08 12:13:32;;;;;;;6.63;4.80;;;12.00;48.60;;;;;;4990311;28;20076;-85
2022/03/08 12:16:06;;;;;;;7.38;4.80;;;12.10;49.00;;;;;;4957612;28;20046;-83
2022/03/08 12:18:48;;;;;;;4.55;3.97;;;12.20;49.00;;;;;;4989113;28;20603;-84
2022/03/08 12:21:20;;;;;;;8.32;4.47;;;12.40;46.60;;;;;;4991808;28;20435;-90
2022/03/08 12:23:50;;;;;;;5.85;4.38;;;12.50;47.40;;;;;;4992032;28;20129;-85
2022/03/08 12:26:38;;;;;;;7.93;4.72;;;12.70;47.50;;;;;;4975492;28;20057;-85
2022/03/08 12:29:04;;;;;;;6.30;4.50;;;13.10;45.00;;;;;;4991100;28;20044;-83
2022/03/08 12:31:30;;;;;;;9.25;4.68;;;13.50;46.50;;;;;;4974973;28;20046;-84
2022/03/08 12:34:08;;;;;;;7.57;4.68;;;14.20;45.60;;;;;;4975349;28;20038;-86
2022/03/08 12:36:35;;;;;;;5.75;4.25;;;14.90;42.50;;;;;;4957172;28;20074;-81
2022/03/08 12:39:03;;;;;;;6.10;5.10;;;15.60;42.50;;;;;;4973618;28;20138;-84